CDT,Max TemperatureF,Mean TemperatureF,Min TemperatureF,Max Dew PointF,MeanDew PointF,Min DewpointF,Max Humidity, Mean Humidity, Min Humidity, Max Sea Level PressureIn, Mean Sea Level PressureIn, Min Sea Level PressureIn, Max VisibilityMiles, Mean VisibilityMiles, Min VisibilityMiles, Max Wind SpeedMPH, Mean Wind SpeedMPH, Max Gust SpeedMPH,PrecipitationIn, CloudCover, Events, WindDirDegrees
2013-10-1,90,81,71,74,72,69,100,80,59,29.97,29.92,29.88,10,6,0,22,6,30,0.02,4,Fog-Rain-Thunderstorm,133
2013-10-2,90,82,73,73,71,69,94,73,52,30.02,29.97,29.91,10,10,6,12,6,16,0.00,4,Thunderstorm,128
2013-10-3,90,82,73,76,73,71,100,80,59,29.99,29.94,29.88,10,6,0,17,4,23,0.10,5,Fog-Rain,134
2013-10-4,92,81,70,76,71,66,97,75,52,29.97,29.93,29.88,10,6,0,13,4,16,0.00,4,Fog,131
2013-10-5,92,78,63,75,71,55,94,73,52,30.00,29.93,29.84,10,9,4,16,5,24,0.00,6,Rain,93
2013-10-6,80,66,52,53,45,35,77,49,21,30.09,30.02,29.97,10,10,10,15,5,21,T,1,,326
2013-10-7,81,65,48,50,44,37,93,57,21,30.14,30.08,30.03,10,10,10,12,3,16,0.00,0,,336
2013-10-8,80,64,47,56,52,46,93,65,36,30.12,30.06,30.01,10,10,10,10,2,12,0.00,0,,83
2013-10-9,82,67,51,59,55,51,100,70,39,30.11,30.04,30.01,10,10,10,9,2,15,0.00,0,,119
2013-10-10,85,69,53,64,60,52,100,72,44,30.09,30.02,29.95,10,10,5,12,4,16,0.00,1,,122
2013-10-11,87,73,59,70,65,59,100,78,55,29.98,29.94,29.89,10,8,1,14,6,20,0.00,1,,127
2013-10-12,91,81,70,75,71,66,100,78,56,30.10,30.00,29.92,10,6,0,16,6,25,1.18,6,Fog-Rain-Thunderstorm,139
2013-10-13,80,75,70,70,69,67,93,78,62,30.18,30.12,30.05,10,10,9,10,5,14,0.01,4,Rain-Thunderstorm,78
2013-10-14,84,79,73,70,69,68,87,75,63,30.14,30.07,29.98,10,9,7,16,6,20,0.00,4,,106
2013-10-15,88,80,71,73,71,69,94,75,55,30.01,29.96,29.88,10,6,0,5,5,7,0.04,6,Fog-Rain,155
2013-10-16,75,69,62,72,66,60,97,91,84,30.03,29.96,29.89,10,6,2,12,5,18,0.19,8,Rain,331
2013-10-17,77,66,55,59,54,47,97,67,36,30.10,30.03,29.99,10,9,2,5,4,6,0.00,4,,351
2013-10-18,73,64,54,59,55,51,93,75,57,30.04,29.98,29.93,10,10,10,14,4,17,T,4,Rain,113
2013-10-19,70,58,45,58,48,38,90,61,31,30.13,30.07,29.99,10,10,6,15,5,23,0.00,2,,333
2013-10-20,73,57,41,53,46,39,92,65,38,30.11,30.03,29.96,10,10,8,10,3,17,0.00,0,,151
2013-10-21,81,67,52,64,57,49,100,75,49,30.02,29.98,29.93,10,10,8,15,5,21,0.00,3,,136
2013-10-22,75,63,50,63,55,45,96,66,35,30.11,30.06,29.99,10,9,5,13,5,18,0.00,4,,343
2013-10-23,81,64,47,56,50,45,93,63,33,30.14,30.10,30.08,10,10,10,9,1,14,0.00,0,,147
2013-10-24,83,66,48,55,51,48,100,66,31,30.24,30.17,30.11,10,10,10,10,2,14,0.00,0,,274
2013-10-25,71,62,53,55,48,44,86,65,44,30.40,30.32,30.24,10,10,10,16,7,23,0.00,0,,67
2013-10-26,80,63,46,61,52,42,93,69,45,30.27,30.19,30.10,10,10,10,15,7,21,T,1,Rain,149
2013-10-27,74,65,56,63,60,57,100,82,64,30.18,30.08,30.01,10,8,2,17,3,21,0.10,6,Rain-Thunderstorm,291
2013-10-28,82,69,56,66,60,55,100,81,62,30.15,30.07,30.04,10,5,0,18,4,20,0.00,6,Fog,105
2013-10-29,85,76,67,69,67,65,100,78,55,30.15,30.10,30.05,10,7,2,16,8,23,0.00,4,,137
2013-10-30,79,73,66,73,68,63,100,94,87,30.09,29.97,29.84,10,6,1,16,10,21,0.00,8,Rain-Thunderstorm,118
2013-10-31,79,68,56,74,69,50,90,66,41,29.89,29.78,29.73,10,6,0,8,7,13,0.00,6,Fog-Rain-Thunderstorm,225